<?xml version="1.0" encoding="UTF-8" standalone="no" ?>
<gpx xmlns="http://www.topografix.com/GPX/1/1" xmlns:xsi="http://www.w3.org/2001/XMLSchema-instance" xsi:schemaLocation="http://www.topografix.com/GPX/1/1 http://www.topografix.com/GPX/1/1/gpx.xsd" version="1.1" creator="VisuGPX - https://www.visugpx.com">
  <metadata>
    <name>Col du Soufre</name>
    <desc><![CDATA[Depuis le refuge du Saut.
Aller-retour au sommet côté 2926 m.
Descente jusqu' à Méribel-Mottaret]]></desc>
  </metadata>
  <trk>
    <name><![CDATA[2017-08-13-01]]></name>
    <trkseg>
      <trkpt lat="45.33704" lon="6.6324">
        <ele>2144.5</ele>
        <time>2017-08-13T06:25:18Z</time>
      </trkpt>
      <trkpt lat="45.33704" lon="6.6324">
        <ele>2144.5</ele>
        <time>2017-08-13T06:25:19Z</time>
      </trkpt>
      <trkpt lat="45.33665" lon="6.63208">
        <ele>2146.5</ele>
        <time>2017-08-13T06:28:45Z</time>
      </trkpt>
      <trkpt lat="45.3362" lon="6.63214">
        <ele>2183.8</ele>
        <time>2017-08-13T06:29:20Z</time>
      </trkpt>
      <trkpt lat="45.33578" lon="6.63188">
        <ele>2201</ele>
        <time>2017-08-13T06:30:03Z</time>
      </trkpt>
      <trkpt lat="45.3354" lon="6.63154">
        <ele>2207</ele>
        <time>2017-08-13T06:30:47Z</time>
      </trkpt>
      <trkpt lat="45.33498" lon="6.63125">
        <ele>2224</ele>
        <time>2017-08-13T06:31:31Z</time>
      </trkpt>
      <trkpt lat="45.33455" lon="6.63096">
        <ele>2236</ele>
        <time>2017-08-13T06:32:23Z</time>
      </trkpt>
      <trkpt lat="45.33423" lon="6.63052">
        <ele>2234</ele>
        <time>2017-08-13T06:33:31Z</time>
      </trkpt>
      <trkpt lat="45.33394" lon="6.63002">
        <ele>2219</ele>
        <time>2017-08-13T06:34:47Z</time>
      </trkpt>
      <trkpt lat="45.33352" lon="6.62977">
        <ele>2263</ele>
        <time>2017-08-13T06:36:08Z</time>
      </trkpt>
      <trkpt lat="45.33324" lon="6.62923">
        <ele>2236</ele>
        <time>2017-08-13T06:37:27Z</time>
      </trkpt>
      <trkpt lat="45.33275" lon="6.62874">
        <ele>2233</ele>
        <time>2017-08-13T06:38:52Z</time>
      </trkpt>
      <trkpt lat="45.33238" lon="6.62836">
        <ele>2226</ele>
        <time>2017-08-13T06:40:05Z</time>
      </trkpt>
      <trkpt lat="45.33201" lon="6.62799">
        <ele>2233.5</ele>
        <time>2017-08-13T06:41:29Z</time>
      </trkpt>
      <trkpt lat="45.33173" lon="6.62748">
        <ele>2240.6</ele>
        <time>2017-08-13T06:43:43Z</time>
      </trkpt>
      <trkpt lat="45.33134" lon="6.62716">
        <ele>2243</ele>
        <time>2017-08-13T06:45:21Z</time>
      </trkpt>
      <trkpt lat="45.33089" lon="6.62704">
        <ele>2245.2</ele>
        <time>2017-08-13T06:46:15Z</time>
      </trkpt>
      <trkpt lat="45.33046" lon="6.62682">
        <ele>2245.6</ele>
        <time>2017-08-13T06:47:17Z</time>
      </trkpt>
      <trkpt lat="45.33002" lon="6.62671">
        <ele>2246.5</ele>
        <time>2017-08-13T06:48:19Z</time>
      </trkpt>
      <trkpt lat="45.32961" lon="6.62643">
        <ele>2249.5</ele>
        <time>2017-08-13T06:49:20Z</time>
      </trkpt>
      <trkpt lat="45.32936" lon="6.6259">
        <ele>2255.5</ele>
        <time>2017-08-13T06:50:17Z</time>
      </trkpt>
      <trkpt lat="45.32905" lon="6.62542">
        <ele>2257.4</ele>
        <time>2017-08-13T06:51:12Z</time>
      </trkpt>
      <trkpt lat="45.32876" lon="6.62493">
        <ele>2261.1</ele>
        <time>2017-08-13T06:52:03Z</time>
      </trkpt>
      <trkpt lat="45.32857" lon="6.62435">
        <ele>2262.1</ele>
        <time>2017-08-13T06:52:56Z</time>
      </trkpt>
      <trkpt lat="45.32817" lon="6.62402">
        <ele>2266</ele>
        <time>2017-08-13T06:53:46Z</time>
      </trkpt>
      <trkpt lat="45.32773" lon="6.62397">
        <ele>2269</ele>
        <time>2017-08-13T06:54:49Z</time>
      </trkpt>
      <trkpt lat="45.32756" lon="6.62457">
        <ele>2276</ele>
        <time>2017-08-13T06:56:05Z</time>
      </trkpt>
      <trkpt lat="45.32722" lon="6.62499">
        <ele>2282</ele>
        <time>2017-08-13T06:57:17Z</time>
      </trkpt>
      <trkpt lat="45.32676" lon="6.62498">
        <ele>2296.5</ele>
        <time>2017-08-13T06:58:36Z</time>
      </trkpt>
      <trkpt lat="45.32638" lon="6.62466">
        <ele>2308</ele>
        <time>2017-08-13T07:00:03Z</time>
      </trkpt>
      <trkpt lat="45.32599" lon="6.6243">
        <ele>2317.1</ele>
        <time>2017-08-13T07:01:25Z</time>
      </trkpt>
      <trkpt lat="45.32554" lon="6.62418">
        <ele>2321.1</ele>
        <time>2017-08-13T07:02:22Z</time>
      </trkpt>
      <trkpt lat="45.32509" lon="6.62418">
        <ele>2329.4</ele>
        <time>2017-08-13T07:03:21Z</time>
      </trkpt>
      <trkpt lat="45.32464" lon="6.62406">
        <ele>2332</ele>
        <time>2017-08-13T07:04:19Z</time>
      </trkpt>
      <trkpt lat="45.32419" lon="6.62402">
        <ele>2335.9</ele>
        <time>2017-08-13T07:05:48Z</time>
      </trkpt>
      <trkpt lat="45.32375" lon="6.62385">
        <ele>2343.6</ele>
        <time>2017-08-13T07:07:11Z</time>
      </trkpt>
      <trkpt lat="45.32346" lon="6.62336">
        <ele>2360</ele>
        <time>2017-08-13T07:08:57Z</time>
      </trkpt>
      <trkpt lat="45.323" lon="6.62333">
        <ele>2375.3</ele>
        <time>2017-08-13T07:10:47Z</time>
      </trkpt>
      <trkpt lat="45.32256" lon="6.62344">
        <ele>2389.9</ele>
        <time>2017-08-13T07:12:18Z</time>
      </trkpt>
      <trkpt lat="45.32212" lon="6.62358">
        <ele>2396.7</ele>
        <time>2017-08-13T07:13:31Z</time>
      </trkpt>
      <trkpt lat="45.3217" lon="6.62383">
        <ele>2402.4</ele>
        <time>2017-08-13T07:14:33Z</time>
      </trkpt>
      <trkpt lat="45.32126" lon="6.624">
        <ele>2410.6</ele>
        <time>2017-08-13T07:15:34Z</time>
      </trkpt>
      <trkpt lat="45.32084" lon="6.62423">
        <ele>2416</ele>
        <time>2017-08-13T07:18:46Z</time>
      </trkpt>
      <trkpt lat="45.32042" lon="6.62448">
        <ele>2420.4</ele>
        <time>2017-08-13T07:19:42Z</time>
      </trkpt>
      <trkpt lat="45.31997" lon="6.62438">
        <ele>2434.8</ele>
        <time>2017-08-13T07:20:52Z</time>
      </trkpt>
      <trkpt lat="45.31955" lon="6.62412">
        <ele>2446.8</ele>
        <time>2017-08-13T07:22:14Z</time>
      </trkpt>
      <trkpt lat="45.31912" lon="6.62432">
        <ele>2447.2</ele>
        <time>2017-08-13T07:23:43Z</time>
      </trkpt>
      <trkpt lat="45.31867" lon="6.6244">
        <ele>2464.3</ele>
        <time>2017-08-13T07:25:57Z</time>
      </trkpt>
      <trkpt lat="45.31825" lon="6.62419">
        <ele>2475.3</ele>
        <time>2017-08-13T07:27:19Z</time>
      </trkpt>
      <trkpt lat="45.31781" lon="6.62402">
        <ele>2467.8</ele>
        <time>2017-08-13T07:29:59Z</time>
      </trkpt>
      <trkpt lat="45.31749" lon="6.62357">
        <ele>2492.1</ele>
        <time>2017-08-13T07:31:49Z</time>
      </trkpt>
      <trkpt lat="45.31706" lon="6.62378">
        <ele>2500.2</ele>
        <time>2017-08-13T07:33:59Z</time>
      </trkpt>
      <trkpt lat="45.31662" lon="6.62362">
        <ele>2528.5</ele>
        <time>2017-08-13T07:36:17Z</time>
      </trkpt>
      <trkpt lat="45.31622" lon="6.62332">
        <ele>2542.5</ele>
        <time>2017-08-13T07:38:26Z</time>
      </trkpt>
      <trkpt lat="45.31578" lon="6.62317">
        <ele>2539.1</ele>
        <time>2017-08-13T07:40:17Z</time>
      </trkpt>
      <trkpt lat="45.31533" lon="6.6233">
        <ele>2541.8</ele>
        <time>2017-08-13T07:41:30Z</time>
      </trkpt>
      <trkpt lat="45.31492" lon="6.62358">
        <ele>2564</ele>
        <time>2017-08-13T07:42:58Z</time>
      </trkpt>
      <trkpt lat="45.31447" lon="6.62358">
        <ele>2589.1</ele>
        <time>2017-08-13T07:44:55Z</time>
      </trkpt>
      <trkpt lat="45.31404" lon="6.62381">
        <ele>2590.3</ele>
        <time>2017-08-13T07:53:31Z</time>
      </trkpt>
      <trkpt lat="45.31364" lon="6.6241">
        <ele>2592.6</ele>
        <time>2017-08-13T07:54:34Z</time>
      </trkpt>
      <trkpt lat="45.31326" lon="6.62447">
        <ele>2600.3</ele>
        <time>2017-08-13T07:55:41Z</time>
      </trkpt>
      <trkpt lat="45.31288" lon="6.62482">
        <ele>2599.5</ele>
        <time>2017-08-13T07:56:46Z</time>
      </trkpt>
      <trkpt lat="45.31247" lon="6.62506">
        <ele>2605.1</ele>
        <time>2017-08-13T07:57:48Z</time>
      </trkpt>
      <trkpt lat="45.31207" lon="6.62538">
        <ele>2612.5</ele>
        <time>2017-08-13T07:58:55Z</time>
      </trkpt>
      <trkpt lat="45.31167" lon="6.62572">
        <ele>2619.5</ele>
        <time>2017-08-13T08:00:01Z</time>
      </trkpt>
      <trkpt lat="45.31128" lon="6.62604">
        <ele>2621.9</ele>
        <time>2017-08-13T08:00:54Z</time>
      </trkpt>
      <trkpt lat="45.31086" lon="6.62628">
        <ele>2628.9</ele>
        <time>2017-08-13T08:01:59Z</time>
      </trkpt>
      <trkpt lat="45.31043" lon="6.62651">
        <ele>2653.2</ele>
        <time>2017-08-13T08:02:51Z</time>
      </trkpt>
      <trkpt lat="45.31001" lon="6.62674">
        <ele>2655.6</ele>
        <time>2017-08-13T08:03:47Z</time>
      </trkpt>
      <trkpt lat="45.30958" lon="6.6269">
        <ele>2667.4</ele>
        <time>2017-08-13T08:04:55Z</time>
      </trkpt>
      <trkpt lat="45.30913" lon="6.62695">
        <ele>2668.4</ele>
        <time>2017-08-13T08:07:05Z</time>
      </trkpt>
      <trkpt lat="45.30868" lon="6.62687">
        <ele>2679.7</ele>
        <time>2017-08-13T08:08:33Z</time>
      </trkpt>
      <trkpt lat="45.30829" lon="6.62719">
        <ele>2685.5</ele>
        <time>2017-08-13T08:09:32Z</time>
      </trkpt>
      <trkpt lat="45.30789" lon="6.6275">
        <ele>2683.1</ele>
        <time>2017-08-13T08:10:29Z</time>
      </trkpt>
      <trkpt lat="45.30749" lon="6.6278">
        <ele>2686</ele>
        <time>2017-08-13T08:11:30Z</time>
      </trkpt>
      <trkpt lat="45.30706" lon="6.62802">
        <ele>2688.1</ele>
        <time>2017-08-13T08:13:11Z</time>
      </trkpt>
      <trkpt lat="45.30661" lon="6.62815">
        <ele>2684.3</ele>
        <time>2017-08-13T08:14:10Z</time>
      </trkpt>
      <trkpt lat="45.30625" lon="6.62854">
        <ele>2687</ele>
        <time>2017-08-13T08:15:09Z</time>
      </trkpt>
      <trkpt lat="45.3058" lon="6.62861">
        <ele>2694.6</ele>
        <time>2017-08-13T08:16:20Z</time>
      </trkpt>
      <trkpt lat="45.30535" lon="6.62879">
        <ele>2705</ele>
        <time>2017-08-13T08:17:50Z</time>
      </trkpt>
      <trkpt lat="45.30492" lon="6.629">
        <ele>2713.1</ele>
        <time>2017-08-13T08:19:26Z</time>
      </trkpt>
      <trkpt lat="45.3045" lon="6.62923">
        <ele>2723.3</ele>
        <time>2017-08-13T08:20:30Z</time>
      </trkpt>
      <trkpt lat="45.30412" lon="6.62959">
        <ele>2732.4</ele>
        <time>2017-08-13T08:21:50Z</time>
      </trkpt>
      <trkpt lat="45.30369" lon="6.62978">
        <ele>2735</ele>
        <time>2017-08-13T08:22:38Z</time>
      </trkpt>
      <trkpt lat="45.30339" lon="6.63027">
        <ele>2734</ele>
        <time>2017-08-13T08:23:47Z</time>
      </trkpt>
      <trkpt lat="45.30328" lon="6.6309">
        <ele>2739.1</ele>
        <time>2017-08-13T08:25:53Z</time>
      </trkpt>
      <trkpt lat="45.30312" lon="6.6315">
        <ele>2751.6</ele>
        <time>2017-08-13T08:29:06Z</time>
      </trkpt>
      <trkpt lat="45.30296" lon="6.63211">
        <ele>2760.9</ele>
        <time>2017-08-13T08:30:27Z</time>
      </trkpt>
      <trkpt lat="45.30283" lon="6.63273">
        <ele>2768.1</ele>
        <time>2017-08-13T08:31:38Z</time>
      </trkpt>
      <trkpt lat="45.30264" lon="6.63331">
        <ele>2765.4</ele>
        <time>2017-08-13T08:33:16Z</time>
      </trkpt>
      <trkpt lat="45.30232" lon="6.63377">
        <ele>2762.6</ele>
        <time>2017-08-13T08:37:13Z</time>
      </trkpt>
      <trkpt lat="45.30212" lon="6.63434">
        <ele>2775.1</ele>
        <time>2017-08-13T08:39:05Z</time>
      </trkpt>
      <trkpt lat="45.30171" lon="6.63462">
        <ele>2802.1</ele>
        <time>2017-08-13T08:40:23Z</time>
      </trkpt>
      <trkpt lat="45.30138" lon="6.63507">
        <ele>2820</ele>
        <time>2017-08-13T08:41:31Z</time>
      </trkpt>
      <trkpt lat="45.30094" lon="6.63489">
        <ele>2836.6</ele>
        <time>2017-08-13T08:52:21Z</time>
      </trkpt>
      <trkpt lat="45.30058" lon="6.63527">
        <ele>2866.3</ele>
        <time>2017-08-13T08:54:35Z</time>
      </trkpt>
      <trkpt lat="45.30017" lon="6.63554">
        <ele>2899.4</ele>
        <time>2017-08-13T08:58:45Z</time>
      </trkpt>
      <trkpt lat="45.29973" lon="6.63572">
        <ele>2926.7</ele>
        <time>2017-08-13T09:01:59Z</time>
      </trkpt>
      <trkpt lat="45.30016" lon="6.63554">
        <ele>2908.2</ele>
        <time>2017-08-13T09:16:17Z</time>
      </trkpt>
      <trkpt lat="45.30059" lon="6.63534">
        <ele>2869.5</ele>
        <time>2017-08-13T09:24:47Z</time>
      </trkpt>
      <trkpt lat="45.30093" lon="6.63492">
        <ele>2838.2</ele>
        <time>2017-08-13T09:28:15Z</time>
      </trkpt>
      <trkpt lat="45.30124" lon="6.63539">
        <ele>2828.2</ele>
        <time>2017-08-13T09:29:49Z</time>
      </trkpt>
      <trkpt lat="45.30163" lon="6.63505">
        <ele>2820.6</ele>
        <time>2017-08-13T09:33:03Z</time>
      </trkpt>
      <trkpt lat="45.30184" lon="6.63447">
        <ele>2807</ele>
        <time>2017-08-13T09:35:45Z</time>
      </trkpt>
      <trkpt lat="45.30216" lon="6.63401">
        <ele>2788.1</ele>
        <time>2017-08-13T09:37:31Z</time>
      </trkpt>
      <trkpt lat="45.30235" lon="6.63343">
        <ele>2777.7</ele>
        <time>2017-08-13T09:38:42Z</time>
      </trkpt>
      <trkpt lat="45.30266" lon="6.63296">
        <ele>2770.4</ele>
        <time>2017-08-13T09:40:45Z</time>
      </trkpt>
      <trkpt lat="45.30293" lon="6.63242">
        <ele>2770.3</ele>
        <time>2017-08-13T09:41:53Z</time>
      </trkpt>
      <trkpt lat="45.30299" lon="6.63178">
        <ele>2765</ele>
        <time>2017-08-13T09:43:03Z</time>
      </trkpt>
      <trkpt lat="45.30319" lon="6.63119">
        <ele>2752.2</ele>
        <time>2017-08-13T09:43:39Z</time>
      </trkpt>
      <trkpt lat="45.30333" lon="6.63058">
        <ele>2743</ele>
        <time>2017-08-13T09:45:19Z</time>
      </trkpt>
      <trkpt lat="45.30356" lon="6.63002">
        <ele>2729.3</ele>
        <time>2017-08-13T09:46:29Z</time>
      </trkpt>
      <trkpt lat="45.30378" lon="6.62946">
        <ele>2724</ele>
        <time>2017-08-13T09:47:27Z</time>
      </trkpt>
      <trkpt lat="45.30417" lon="6.6291">
        <ele>2719</ele>
        <time>2017-08-13T09:48:11Z</time>
      </trkpt>
      <trkpt lat="45.30463" lon="6.62906">
        <ele>2724.5</ele>
        <time>2017-08-13T10:35:16Z</time>
      </trkpt>
      <trkpt lat="45.30506" lon="6.62889">
        <ele>2716</ele>
        <time>2017-08-13T10:36:15Z</time>
      </trkpt>
      <trkpt lat="45.30548" lon="6.62865">
        <ele>2699.1</ele>
        <time>2017-08-13T10:37:30Z</time>
      </trkpt>
      <trkpt lat="45.30594" lon="6.62865">
        <ele>2689.9</ele>
        <time>2017-08-13T10:38:47Z</time>
      </trkpt>
      <trkpt lat="45.30635" lon="6.62837">
        <ele>2682.6</ele>
        <time>2017-08-13T10:39:45Z</time>
      </trkpt>
      <trkpt lat="45.30679" lon="6.62818">
        <ele>2682.3</ele>
        <time>2017-08-13T10:40:30Z</time>
      </trkpt>
      <trkpt lat="45.3072" lon="6.62791">
        <ele>2684</ele>
        <time>2017-08-13T10:41:23Z</time>
      </trkpt>
      <trkpt lat="45.30764" lon="6.6277">
        <ele>2684.7</ele>
        <time>2017-08-13T10:42:15Z</time>
      </trkpt>
      <trkpt lat="45.30804" lon="6.6274">
        <ele>2678.1</ele>
        <time>2017-08-13T10:43:14Z</time>
      </trkpt>
      <trkpt lat="45.30842" lon="6.62707">
        <ele>2675.9</ele>
        <time>2017-08-13T10:44:00Z</time>
      </trkpt>
      <trkpt lat="45.30882" lon="6.62678">
        <ele>2671.3</ele>
        <time>2017-08-13T10:44:55Z</time>
      </trkpt>
      <trkpt lat="45.30927" lon="6.62689">
        <ele>2660.8</ele>
        <time>2017-08-13T10:46:33Z</time>
      </trkpt>
      <trkpt lat="45.30972" lon="6.62679">
        <ele>2645.9</ele>
        <time>2017-08-13T10:48:08Z</time>
      </trkpt>
      <trkpt lat="45.31017" lon="6.62662">
        <ele>2635</ele>
        <time>2017-08-13T10:49:01Z</time>
      </trkpt>
      <trkpt lat="45.31059" lon="6.62639">
        <ele>2635.9</ele>
        <time>2017-08-13T10:49:47Z</time>
      </trkpt>
      <trkpt lat="45.31105" lon="6.6263">
        <ele>2621</ele>
        <time>2017-08-13T10:50:43Z</time>
      </trkpt>
      <trkpt lat="45.31142" lon="6.62593">
        <ele>2616.2</ele>
        <time>2017-08-13T10:51:32Z</time>
      </trkpt>
      <trkpt lat="45.31183" lon="6.62563">
        <ele>2611.3</ele>
        <time>2017-08-13T10:52:20Z</time>
      </trkpt>
      <trkpt lat="45.31221" lon="6.62526">
        <ele>2607</ele>
        <time>2017-08-13T10:53:16Z</time>
      </trkpt>
      <trkpt lat="45.31264" lon="6.62504">
        <ele>2602.2</ele>
        <time>2017-08-13T10:54:00Z</time>
      </trkpt>
      <trkpt lat="45.313" lon="6.62465">
        <ele>2598.2</ele>
        <time>2017-08-13T10:54:58Z</time>
      </trkpt>
      <trkpt lat="45.31341" lon="6.62437">
        <ele>2598.8</ele>
        <time>2017-08-13T10:55:42Z</time>
      </trkpt>
      <trkpt lat="45.31378" lon="6.62398">
        <ele>2592.3</ele>
        <time>2017-08-13T10:56:28Z</time>
      </trkpt>
      <trkpt lat="45.31419" lon="6.62373">
        <ele>2586.1</ele>
        <time>2017-08-13T10:57:15Z</time>
      </trkpt>
      <trkpt lat="45.31463" lon="6.62355">
        <ele>2580</ele>
        <time>2017-08-13T10:58:15Z</time>
      </trkpt>
      <trkpt lat="45.31508" lon="6.62352">
        <ele>2562.4</ele>
        <time>2017-08-13T10:59:57Z</time>
      </trkpt>
      <trkpt lat="45.31552" lon="6.62333">
        <ele>2553.8</ele>
        <time>2017-08-13T11:01:26Z</time>
      </trkpt>
      <trkpt lat="45.31597" lon="6.62328">
        <ele>2542.7</ele>
        <time>2017-08-13T11:02:23Z</time>
      </trkpt>
      <trkpt lat="45.31637" lon="6.62359">
        <ele>2526.9</ele>
        <time>2017-08-13T11:03:51Z</time>
      </trkpt>
      <trkpt lat="45.31682" lon="6.62347">
        <ele>2518.2</ele>
        <time>2017-08-13T11:05:21Z</time>
      </trkpt>
      <trkpt lat="45.31723" lon="6.62374">
        <ele>2492.8</ele>
        <time>2017-08-13T11:07:01Z</time>
      </trkpt>
      <trkpt lat="45.31768" lon="6.62369">
        <ele>2483.9</ele>
        <time>2017-08-13T11:08:04Z</time>
      </trkpt>
      <trkpt lat="45.31801" lon="6.62414">
        <ele>2469.9</ele>
        <time>2017-08-13T11:09:19Z</time>
      </trkpt>
      <trkpt lat="45.31844" lon="6.62433">
        <ele>2454.9</ele>
        <time>2017-08-13T11:10:20Z</time>
      </trkpt>
      <trkpt lat="45.31888" lon="6.62449">
        <ele>2443</ele>
        <time>2017-08-13T11:11:29Z</time>
      </trkpt>
      <trkpt lat="45.31924" lon="6.62409">
        <ele>2439.2</ele>
        <time>2017-08-13T11:16:18Z</time>
      </trkpt>
      <trkpt lat="45.31968" lon="6.62426">
        <ele>2432.3</ele>
        <time>2017-08-13T11:17:14Z</time>
      </trkpt>
      <trkpt lat="45.3201" lon="6.6245">
        <ele>2417.2</ele>
        <time>2017-08-13T11:18:10Z</time>
      </trkpt>
      <trkpt lat="45.32056" lon="6.62445">
        <ele>2417.1</ele>
        <time>2017-08-13T11:18:56Z</time>
      </trkpt>
      <trkpt lat="45.32096" lon="6.62417">
        <ele>2411.1</ele>
        <time>2017-08-13T11:19:44Z</time>
      </trkpt>
      <trkpt lat="45.3214" lon="6.62399">
        <ele>2400.5</ele>
        <time>2017-08-13T11:20:36Z</time>
      </trkpt>
      <trkpt lat="45.32184" lon="6.62378">
        <ele>2394.4</ele>
        <time>2017-08-13T11:21:26Z</time>
      </trkpt>
      <trkpt lat="45.32224" lon="6.62349">
        <ele>2389.6</ele>
        <time>2017-08-13T11:22:23Z</time>
      </trkpt>
      <trkpt lat="45.32269" lon="6.62357">
        <ele>2375.3</ele>
        <time>2017-08-13T11:23:31Z</time>
      </trkpt>
      <trkpt lat="45.32314" lon="6.62349">
        <ele>2361.4</ele>
        <time>2017-08-13T11:24:48Z</time>
      </trkpt>
      <trkpt lat="45.32355" lon="6.62381">
        <ele>2354.6</ele>
        <time>2017-08-13T11:27:30Z</time>
      </trkpt>
      <trkpt lat="45.32399" lon="6.62395">
        <ele>2326.7</ele>
        <time>2017-08-13T11:29:00Z</time>
      </trkpt>
      <trkpt lat="45.32444" lon="6.62404">
        <ele>2324.4</ele>
        <time>2017-08-13T11:29:49Z</time>
      </trkpt>
      <trkpt lat="45.32488" lon="6.6242">
        <ele>2319</ele>
        <time>2017-08-13T11:30:41Z</time>
      </trkpt>
      <trkpt lat="45.32533" lon="6.62419">
        <ele>2315.3</ele>
        <time>2017-08-13T11:31:29Z</time>
      </trkpt>
      <trkpt lat="45.32578" lon="6.62426">
        <ele>2310.3</ele>
        <time>2017-08-13T11:32:15Z</time>
      </trkpt>
      <trkpt lat="45.32621" lon="6.62451">
        <ele>2308.1</ele>
        <time>2017-08-13T11:33:05Z</time>
      </trkpt>
      <trkpt lat="45.32656" lon="6.62492">
        <ele>2293.4</ele>
        <time>2017-08-13T11:34:50Z</time>
      </trkpt>
      <trkpt lat="45.32701" lon="6.62505">
        <ele>2280.5</ele>
        <time>2017-08-13T11:35:52Z</time>
      </trkpt>
      <trkpt lat="45.32745" lon="6.62486">
        <ele>2279.4</ele>
        <time>2017-08-13T11:36:49Z</time>
      </trkpt>
      <trkpt lat="45.32765" lon="6.62428">
        <ele>2275.3</ele>
        <time>2017-08-13T11:37:37Z</time>
      </trkpt>
      <trkpt lat="45.32807" lon="6.62402">
        <ele>2260.4</ele>
        <time>2017-08-13T11:38:56Z</time>
      </trkpt>
      <trkpt lat="45.32848" lon="6.62429">
        <ele>2260.8</ele>
        <time>2017-08-13T11:39:42Z</time>
      </trkpt>
      <trkpt lat="45.32872" lon="6.62484">
        <ele>2259.4</ele>
        <time>2017-08-13T11:40:27Z</time>
      </trkpt>
      <trkpt lat="45.32901" lon="6.62534">
        <ele>2253.5</ele>
        <time>2017-08-13T11:41:14Z</time>
      </trkpt>
      <trkpt lat="45.32928" lon="6.62586">
        <ele>2253.4</ele>
        <time>2017-08-13T11:42:00Z</time>
      </trkpt>
      <trkpt lat="45.32958" lon="6.62635">
        <ele>2244.7</ele>
        <time>2017-08-13T11:42:50Z</time>
      </trkpt>
      <trkpt lat="45.32997" lon="6.62666">
        <ele>2240.2</ele>
        <time>2017-08-13T11:43:42Z</time>
      </trkpt>
      <trkpt lat="45.33041" lon="6.62681">
        <ele>2235.1</ele>
        <time>2017-08-13T11:44:42Z</time>
      </trkpt>
      <trkpt lat="45.33084" lon="6.627">
        <ele>2240.5</ele>
        <time>2017-08-13T11:45:41Z</time>
      </trkpt>
      <trkpt lat="45.33128" lon="6.62715">
        <ele>2234.2</ele>
        <time>2017-08-13T11:46:34Z</time>
      </trkpt>
      <trkpt lat="45.33168" lon="6.62745">
        <ele>2222.2</ele>
        <time>2017-08-13T11:47:25Z</time>
      </trkpt>
      <trkpt lat="45.33197" lon="6.62794">
        <ele>2218.1</ele>
        <time>2017-08-13T11:48:28Z</time>
      </trkpt>
      <trkpt lat="45.33232" lon="6.62835">
        <ele>2199</ele>
        <time>2017-08-13T11:49:44Z</time>
      </trkpt>
      <trkpt lat="45.33272" lon="6.62865">
        <ele>2186.8</ele>
        <time>2017-08-13T11:50:41Z</time>
      </trkpt>
      <trkpt lat="45.3331" lon="6.62902">
        <ele>2191.4</ele>
        <time>2017-08-13T11:51:25Z</time>
      </trkpt>
      <trkpt lat="45.33348" lon="6.62938">
        <ele>2176</ele>
        <time>2017-08-13T11:52:14Z</time>
      </trkpt>
      <trkpt lat="45.33383" lon="6.6298">
        <ele>2172.6</ele>
        <time>2017-08-13T11:53:16Z</time>
      </trkpt>
      <trkpt lat="45.3342" lon="6.63018">
        <ele>2153.3</ele>
        <time>2017-08-13T11:54:13Z</time>
      </trkpt>
      <trkpt lat="45.33455" lon="6.63057">
        <ele>2149.7</ele>
        <time>2017-08-13T11:55:04Z</time>
      </trkpt>
      <trkpt lat="45.33496" lon="6.63086">
        <ele>2135.2</ele>
        <time>2017-08-13T11:55:47Z</time>
      </trkpt>
      <trkpt lat="45.33535" lon="6.63118">
        <ele>2126.3</ele>
        <time>2017-08-13T11:56:28Z</time>
      </trkpt>
      <trkpt lat="45.33574" lon="6.63152">
        <ele>2128.3</ele>
        <time>2017-08-13T11:57:06Z</time>
      </trkpt>
      <trkpt lat="45.33613" lon="6.63188">
        <ele>2122.8</ele>
        <time>2017-08-13T11:57:50Z</time>
      </trkpt>
      <trkpt lat="45.33657" lon="6.63204">
        <ele>2120.7</ele>
        <time>2017-08-13T11:58:34Z</time>
      </trkpt>
      <trkpt lat="45.33702" lon="6.63214">
        <ele>2120.7</ele>
        <time>2017-08-13T11:59:31Z</time>
      </trkpt>
      <trkpt lat="45.33743" lon="6.63243">
        <ele>2125.8</ele>
        <time>2017-08-13T12:02:02Z</time>
      </trkpt>
      <trkpt lat="45.33786" lon="6.63261">
        <ele>2121.6</ele>
        <time>2017-08-13T12:04:37Z</time>
      </trkpt>
      <trkpt lat="45.33824" lon="6.63224">
        <ele>2131.5</ele>
        <time>2017-08-13T12:13:26Z</time>
      </trkpt>
      <trkpt lat="45.33859" lon="6.63182">
        <ele>2134.4</ele>
        <time>2017-08-13T12:14:14Z</time>
      </trkpt>
      <trkpt lat="45.33903" lon="6.63165">
        <ele>2137.7</ele>
        <time>2017-08-13T12:14:59Z</time>
      </trkpt>
      <trkpt lat="45.33947" lon="6.63156">
        <ele>2135.4</ele>
        <time>2017-08-13T12:15:41Z</time>
      </trkpt>
      <trkpt lat="45.33993" lon="6.6315">
        <ele>2134.7</ele>
        <time>2017-08-13T12:16:27Z</time>
      </trkpt>
      <trkpt lat="45.34037" lon="6.63133">
        <ele>2128.1</ele>
        <time>2017-08-13T12:17:08Z</time>
      </trkpt>
      <trkpt lat="45.34077" lon="6.63103">
        <ele>2125.4</ele>
        <time>2017-08-13T12:17:48Z</time>
      </trkpt>
      <trkpt lat="45.34121" lon="6.63082">
        <ele>2126.1</ele>
        <time>2017-08-13T12:18:30Z</time>
      </trkpt>
      <trkpt lat="45.34163" lon="6.63059">
        <ele>2131.2</ele>
        <time>2017-08-13T12:19:09Z</time>
      </trkpt>
      <trkpt lat="45.3419" lon="6.63006">
        <ele>2120.6</ele>
        <time>2017-08-13T12:19:44Z</time>
      </trkpt>
      <trkpt lat="45.34185" lon="6.62941">
        <ele>2118.8</ele>
        <time>2017-08-13T12:20:20Z</time>
      </trkpt>
      <trkpt lat="45.34194" lon="6.62877">
        <ele>2117.3</ele>
        <time>2017-08-13T12:20:58Z</time>
      </trkpt>
      <trkpt lat="45.34219" lon="6.62824">
        <ele>2114.2</ele>
        <time>2017-08-13T12:21:35Z</time>
      </trkpt>
      <trkpt lat="45.34242" lon="6.62767">
        <ele>2111.1</ele>
        <time>2017-08-13T12:22:13Z</time>
      </trkpt>
      <trkpt lat="45.34266" lon="6.62713">
        <ele>2111</ele>
        <time>2017-08-13T12:22:51Z</time>
      </trkpt>
      <trkpt lat="45.34291" lon="6.62659">
        <ele>2107.8</ele>
        <time>2017-08-13T12:23:50Z</time>
      </trkpt>
      <trkpt lat="45.34331" lon="6.62629">
        <ele>2100.2</ele>
        <time>2017-08-13T12:24:59Z</time>
      </trkpt>
      <trkpt lat="45.34338" lon="6.62566">
        <ele>2086.5</ele>
        <time>2017-08-13T12:26:22Z</time>
      </trkpt>
      <trkpt lat="45.34354" lon="6.62505">
        <ele>2069.9</ele>
        <time>2017-08-13T12:27:19Z</time>
      </trkpt>
      <trkpt lat="45.34353" lon="6.6244">
        <ele>2062.4</ele>
        <time>2017-08-13T12:29:36Z</time>
      </trkpt>
      <trkpt lat="45.34369" lon="6.6238">
        <ele>2058.6</ele>
        <time>2017-08-13T12:30:23Z</time>
      </trkpt>
      <trkpt lat="45.3438" lon="6.62317">
        <ele>2055.6</ele>
        <time>2017-08-13T12:31:01Z</time>
      </trkpt>
      <trkpt lat="45.3439" lon="6.62253">
        <ele>2049.9</ele>
        <time>2017-08-13T12:31:39Z</time>
      </trkpt>
      <trkpt lat="45.34405" lon="6.62192">
        <ele>2046.3</ele>
        <time>2017-08-13T12:32:17Z</time>
      </trkpt>
      <trkpt lat="45.34432" lon="6.62139">
        <ele>2044.6</ele>
        <time>2017-08-13T12:32:56Z</time>
      </trkpt>
      <trkpt lat="45.34462" lon="6.62088">
        <ele>2040.5</ele>
        <time>2017-08-13T12:33:34Z</time>
      </trkpt>
      <trkpt lat="45.34493" lon="6.62042">
        <ele>2037.7</ele>
        <time>2017-08-13T12:34:12Z</time>
      </trkpt>
      <trkpt lat="45.34519" lon="6.61989">
        <ele>2036.7</ele>
        <time>2017-08-13T12:34:49Z</time>
      </trkpt>
      <trkpt lat="45.34543" lon="6.61933">
        <ele>2035.6</ele>
        <time>2017-08-13T12:35:26Z</time>
      </trkpt>
      <trkpt lat="45.34564" lon="6.61874">
        <ele>2032.5</ele>
        <time>2017-08-13T12:36:11Z</time>
      </trkpt>
      <trkpt lat="45.34596" lon="6.61829">
        <ele>2027.7</ele>
        <time>2017-08-13T12:36:53Z</time>
      </trkpt>
      <trkpt lat="45.34637" lon="6.61801">
        <ele>2025.3</ele>
        <time>2017-08-13T12:37:32Z</time>
      </trkpt>
      <trkpt lat="45.34671" lon="6.61758">
        <ele>2024.4</ele>
        <time>2017-08-13T12:38:10Z</time>
      </trkpt>
      <trkpt lat="45.34706" lon="6.61717">
        <ele>2021</ele>
        <time>2017-08-13T12:38:51Z</time>
      </trkpt>
      <trkpt lat="45.34742" lon="6.61677">
        <ele>2021.6</ele>
        <time>2017-08-13T12:40:47Z</time>
      </trkpt>
      <trkpt lat="45.34776" lon="6.61636">
        <ele>2017.7</ele>
        <time>2017-08-13T12:41:30Z</time>
      </trkpt>
      <trkpt lat="45.34817" lon="6.61606">
        <ele>2020.2</ele>
        <time>2017-08-13T12:42:16Z</time>
      </trkpt>
      <trkpt lat="45.34862" lon="6.61592">
        <ele>2014.4</ele>
        <time>2017-08-13T12:43:00Z</time>
      </trkpt>
      <trkpt lat="45.34903" lon="6.61565">
        <ele>2014.7</ele>
        <time>2017-08-13T12:43:43Z</time>
      </trkpt>
      <trkpt lat="45.34935" lon="6.61518">
        <ele>2014.5</ele>
        <time>2017-08-13T12:44:30Z</time>
      </trkpt>
      <trkpt lat="45.34979" lon="6.61502">
        <ele>2013.2</ele>
        <time>2017-08-13T12:45:08Z</time>
      </trkpt>
      <trkpt lat="45.3502" lon="6.61475">
        <ele>2009.3</ele>
        <time>2017-08-13T12:45:45Z</time>
      </trkpt>
      <trkpt lat="45.35052" lon="6.61428">
        <ele>2011.6</ele>
        <time>2017-08-13T12:46:24Z</time>
      </trkpt>
      <trkpt lat="45.35093" lon="6.614">
        <ele>2011.3</ele>
        <time>2017-08-13T12:46:59Z</time>
      </trkpt>
      <trkpt lat="45.35138" lon="6.61386">
        <ele>2000.4</ele>
        <time>2017-08-13T12:47:36Z</time>
      </trkpt>
      <trkpt lat="45.35178" lon="6.61353">
        <ele>2012</ele>
        <time>2017-08-13T12:49:32Z</time>
      </trkpt>
      <trkpt lat="45.35215" lon="6.61314">
        <ele>2008.7</ele>
        <time>2017-08-13T12:50:13Z</time>
      </trkpt>
      <trkpt lat="45.35258" lon="6.61293">
        <ele>2012</ele>
        <time>2017-08-13T12:50:52Z</time>
      </trkpt>
      <trkpt lat="45.35303" lon="6.61284">
        <ele>2004.2</ele>
        <time>2017-08-13T12:51:31Z</time>
      </trkpt>
      <trkpt lat="45.35346" lon="6.61262">
        <ele>2009.2</ele>
        <time>2017-08-13T12:52:36Z</time>
      </trkpt>
      <trkpt lat="45.35391" lon="6.61251">
        <ele>2003.3</ele>
        <time>2017-08-13T12:54:21Z</time>
      </trkpt>
      <trkpt lat="45.35433" lon="6.61228">
        <ele>2001.5</ele>
        <time>2017-08-13T12:56:22Z</time>
      </trkpt>
      <trkpt lat="45.35468" lon="6.61187">
        <ele>1996</ele>
        <time>2017-08-13T12:57:54Z</time>
      </trkpt>
      <trkpt lat="45.35503" lon="6.61145">
        <ele>1996.1</ele>
        <time>2017-08-13T12:58:36Z</time>
      </trkpt>
      <trkpt lat="45.35546" lon="6.61125">
        <ele>2002.9</ele>
        <time>2017-08-13T12:59:17Z</time>
      </trkpt>
      <trkpt lat="45.3559" lon="6.61108">
        <ele>1997.9</ele>
        <time>2017-08-13T13:01:02Z</time>
      </trkpt>
      <trkpt lat="45.35628" lon="6.61074">
        <ele>1992.1</ele>
        <time>2017-08-13T13:03:23Z</time>
      </trkpt>
      <trkpt lat="45.35665" lon="6.61036">
        <ele>1995</ele>
        <time>2017-08-13T13:04:10Z</time>
      </trkpt>
      <trkpt lat="45.35705" lon="6.61003">
        <ele>1996.2</ele>
        <time>2017-08-13T13:04:49Z</time>
      </trkpt>
      <trkpt lat="45.35743" lon="6.60966">
        <ele>2003.5</ele>
        <time>2017-08-13T13:05:29Z</time>
      </trkpt>
      <trkpt lat="45.35767" lon="6.60911">
        <ele>2000.8</ele>
        <time>2017-08-13T13:06:13Z</time>
      </trkpt>
      <trkpt lat="45.35795" lon="6.60861">
        <ele>1998.5</ele>
        <time>2017-08-13T13:06:59Z</time>
      </trkpt>
      <trkpt lat="45.35787" lon="6.60798">
        <ele>1993.4</ele>
        <time>2017-08-13T13:07:48Z</time>
      </trkpt>
      <trkpt lat="45.35751" lon="6.60759">
        <ele>1975.3</ele>
        <time>2017-08-13T13:08:39Z</time>
      </trkpt>
      <trkpt lat="45.35718" lon="6.60713">
        <ele>1981.6</ele>
        <time>2017-08-13T13:09:20Z</time>
      </trkpt>
      <trkpt lat="45.35685" lon="6.60669">
        <ele>1962.7</ele>
        <time>2017-08-13T13:10:05Z</time>
      </trkpt>
      <trkpt lat="45.35703" lon="6.6061">
        <ele>1928.2</ele>
        <time>2017-08-13T13:12:00Z</time>
      </trkpt>
      <trkpt lat="45.35678" lon="6.60557">
        <ele>1907.4</ele>
        <time>2017-08-13T13:13:19Z</time>
      </trkpt>
      <trkpt lat="45.35645" lon="6.60512">
        <ele>1894.2</ele>
        <time>2017-08-13T13:14:04Z</time>
      </trkpt>
      <trkpt lat="45.3564" lon="6.60449">
        <ele>1873.8</ele>
        <time>2017-08-13T13:15:17Z</time>
      </trkpt>
      <trkpt lat="45.35647" lon="6.60385">
        <ele>1868.7</ele>
        <time>2017-08-13T13:19:00Z</time>
      </trkpt>
      <trkpt lat="45.35655" lon="6.60322">
        <ele>1859</ele>
        <time>2017-08-13T13:19:45Z</time>
      </trkpt>
      <trkpt lat="45.35642" lon="6.6026">
        <ele>1863.8</ele>
        <time>2017-08-13T13:20:25Z</time>
      </trkpt>
      <trkpt lat="45.35604" lon="6.60227">
        <ele>1850</ele>
        <time>2017-08-13T13:21:07Z</time>
      </trkpt>
      <trkpt lat="45.3557" lon="6.60185">
        <ele>1843.5</ele>
        <time>2017-08-13T13:21:45Z</time>
      </trkpt>
      <trkpt lat="45.35561" lon="6.60122">
        <ele>1830.4</ele>
        <time>2017-08-13T13:22:56Z</time>
      </trkpt>
      <trkpt lat="45.35592" lon="6.60073">
        <ele>1813</ele>
        <time>2017-08-13T13:23:42Z</time>
      </trkpt>
      <trkpt lat="45.3562" lon="6.60023">
        <ele>1809.2</ele>
        <time>2017-08-13T13:24:20Z</time>
      </trkpt>
      <trkpt lat="45.35646" lon="6.5997">
        <ele>1801</ele>
        <time>2017-08-13T13:24:58Z</time>
      </trkpt>
      <trkpt lat="45.3563" lon="6.59909">
        <ele>1790.4</ele>
        <time>2017-08-13T13:26:38Z</time>
      </trkpt>
      <trkpt lat="45.3562" lon="6.59846">
        <ele>1784.9</ele>
        <time>2017-08-13T13:27:25Z</time>
      </trkpt>
      <trkpt lat="45.35615" lon="6.59782">
        <ele>1776.3</ele>
        <time>2017-08-13T13:29:51Z</time>
      </trkpt>
      <trkpt lat="45.35606" lon="6.59719">
        <ele>1761.3</ele>
        <time>2017-08-13T13:31:09Z</time>
      </trkpt>
      <trkpt lat="45.35572" lon="6.59674">
        <ele>1742.7</ele>
        <time>2017-08-13T13:32:09Z</time>
      </trkpt>
      <trkpt lat="45.3557" lon="6.5961">
        <ele>1734.1</ele>
        <time>2017-08-13T13:33:25Z</time>
      </trkpt>
      <trkpt lat="45.3557" lon="6.59544">
        <ele>1731.8</ele>
        <time>2017-08-13T13:34:36Z</time>
      </trkpt>
      <trkpt lat="45.35581" lon="6.59481">
        <ele>1723.1</ele>
        <time>2017-08-13T13:35:19Z</time>
      </trkpt>
      <trkpt lat="45.35569" lon="6.59417">
        <ele>1721.4</ele>
        <time>2017-08-13T13:36:04Z</time>
      </trkpt>
      <trkpt lat="45.35598" lon="6.59364">
        <ele>1722.4</ele>
        <time>2017-08-13T13:36:46Z</time>
      </trkpt>
      <trkpt lat="45.35618" lon="6.59307">
        <ele>1736.2</ele>
        <time>2017-08-13T13:37:21Z</time>
      </trkpt>
      <trkpt lat="45.35659" lon="6.59278">
        <ele>1719.9</ele>
        <time>2017-08-13T13:37:59Z</time>
      </trkpt>
      <trkpt lat="45.35698" lon="6.59245">
        <ele>1715.5</ele>
        <time>2017-08-13T13:40:47Z</time>
      </trkpt>
      <trkpt lat="45.35732" lon="6.59203">
        <ele>1713.1</ele>
        <time>2017-08-13T13:41:27Z</time>
      </trkpt>
      <trkpt lat="45.35766" lon="6.59161">
        <ele>1711.6</ele>
        <time>2017-08-13T13:42:08Z</time>
      </trkpt>
      <trkpt lat="45.358" lon="6.59118">
        <ele>1710.5</ele>
        <time>2017-08-13T13:42:47Z</time>
      </trkpt>
      <trkpt lat="45.35836" lon="6.59078">
        <ele>1711.6</ele>
        <time>2017-08-13T13:43:24Z</time>
      </trkpt>
      <trkpt lat="45.35872" lon="6.5904">
        <ele>1710.5</ele>
        <time>2017-08-13T13:44:06Z</time>
      </trkpt>
      <trkpt lat="45.35911" lon="6.59005">
        <ele>1712.8</ele>
        <time>2017-08-13T13:44:46Z</time>
      </trkpt>
      <trkpt lat="45.35944" lon="6.58958">
        <ele>1708</ele>
        <time>2017-08-13T13:45:26Z</time>
      </trkpt>
      <trkpt lat="45.35972" lon="6.58906">
        <ele>1707.2</ele>
        <time>2017-08-13T13:46:04Z</time>
      </trkpt>
      <trkpt lat="45.36007" lon="6.58864">
        <ele>1708</ele>
        <time>2017-08-13T13:46:39Z</time>
      </trkpt>
      <trkpt lat="45.36047" lon="6.58836">
        <ele>1707.3</ele>
        <time>2017-08-13T13:47:18Z</time>
      </trkpt>
      <trkpt lat="45.36089" lon="6.58808">
        <ele>1706.1</ele>
        <time>2017-08-13T13:48:06Z</time>
      </trkpt>
      <trkpt lat="45.36133" lon="6.58825">
        <ele>1708.3</ele>
        <time>2017-08-13T13:48:50Z</time>
      </trkpt>
      <trkpt lat="45.36178" lon="6.58834">
        <ele>1708.4</ele>
        <time>2017-08-13T13:49:30Z</time>
      </trkpt>
      <trkpt lat="45.36223" lon="6.58825">
        <ele>1709.2</ele>
        <time>2017-08-13T13:50:09Z</time>
      </trkpt>
      <trkpt lat="45.36263" lon="6.58792">
        <ele>1707.3</ele>
        <time>2017-08-13T13:50:51Z</time>
      </trkpt>
      <trkpt lat="45.36303" lon="6.5876">
        <ele>1705.4</ele>
        <time>2017-08-13T13:51:27Z</time>
      </trkpt>
      <trkpt lat="45.36332" lon="6.58712">
        <ele>1707.1</ele>
        <time>2017-08-13T13:52:04Z</time>
      </trkpt>
      <trkpt lat="45.36356" lon="6.58657">
        <ele>1707.2</ele>
        <time>2017-08-13T13:52:39Z</time>
      </trkpt>
      <trkpt lat="45.36358" lon="6.58592">
        <ele>1706.6</ele>
        <time>2017-08-13T13:53:21Z</time>
      </trkpt>
      <trkpt lat="45.36331" lon="6.5854">
        <ele>1715.2</ele>
        <time>2017-08-13T13:54:00Z</time>
      </trkpt>
      <trkpt lat="45.36375" lon="6.58522">
        <ele>1707.7</ele>
        <time>2017-08-13T13:54:53Z</time>
      </trkpt>
      <trkpt lat="45.36418" lon="6.58541">
        <ele>1711.8</ele>
        <time>2017-08-13T13:55:24Z</time>
      </trkpt>
      <trkpt lat="45.36462" lon="6.58559">
        <ele>1717.2</ele>
        <time>2017-08-13T13:56:01Z</time>
      </trkpt>
      <trkpt lat="45.36506" lon="6.5854">
        <ele>1717.2</ele>
        <time>2017-08-13T13:56:40Z</time>
      </trkpt>
      <trkpt lat="45.36551" lon="6.58536">
        <ele>1719.3</ele>
        <time>2017-08-13T13:57:11Z</time>
      </trkpt>
      <trkpt lat="45.36598" lon="6.58551">
        <ele>1707.7</ele>
        <time>2017-08-13T13:58:44Z</time>
      </trkpt>
      <trkpt lat="45.36644" lon="6.58563">
        <ele>1706.5</ele>
        <time>2017-08-13T13:59:15Z</time>
      </trkpt>
      <trkpt lat="45.36685" lon="6.58537">
        <ele>1697.9</ele>
        <time>2017-08-13T14:00:06Z</time>
      </trkpt>
      <trkpt lat="45.3672" lon="6.58495">
        <ele>1690.4</ele>
        <time>2017-08-13T14:01:17Z</time>
      </trkpt>
      <trkpt lat="45.36748" lon="6.58468">
        <ele>1693.3</ele>
        <time>2017-08-13T14:01:48Z</time>
      </trkpt>
    </trkseg>
  </trk>
</gpx>